Česky Dansk Deutsch English Español Suomi Français Magyar Italiano Nederlands norsk Polski Português svenska Türkçe

 

Het Weer

Don Muang (Thailand)

04:00, 17 juli 2016 (GMT)

NWNNE
WE
SWSSE
Home            
Don Muang Chon Buri Prachin Buri Phetchaburi Kanchanaburi Hua Hin Rayong Nakhon Ratchasima Nakhon Sawan Chanthaburi Prachuap Khirikhan Dawei Chaiyaphum Mergui Phitsanulok Siemreap Tak Khon Kaen Mae Sot Roi Et Loei Chumphon Uttaradit

Om een weerknop op uw website of weblog te plaatsen, copieer onderstaande code en plak die in uw pagina. In het eerste vakje staat HTML-code, in het tweede vakje UBB-code.


Add to Google

Details

Wind speed:3 bf, 7 kn, 3.6 m/s, 8.1 miles/h, 13.0 km/h
Wind direction:SW, 230° - NNE, 030°
Visibility:Greater than 10000 m, 10 km, 32800 ft, 6.2 miles
Clouds:Ein wenig bewölkt at 3000 ft, 914 m
Temperature:33°C, 91°F
Gefühlte Temperatur:40°C, 104°F
Dew-point:25°C, 77°F
Atmospheric pressure:1010 hPa, 757.6 mmHg, 29.83 inHg, 0.997 atm
Relative humidity:63.0 %
METAR:VTBD 170400Z 27007KT 230V030 9999 FEW030 33/25 Q1010 NOSIG

Snelkoppelingen

Actuele weersinformatie van de hele wereld. Voeg locaties toe met het plus (+) symbool. Deze snelkoppelingen kunnen worden toegevoegd aan Google.

Lid van de Technetium groep

website free tracking
StatCounter NetStat W3C Validator

04-08-2020 01:41:08
astro.technetium.be money.technetium.be phote.technetium.be tafeltennistafel.technetium.be www.ligfiets.net